Time;durP1;ratioP1;P1;durP2;ratioP2;P2;SDS_P1;SDS_P2;PMS_P1;PMS_P2;Temp;Humidity;BMP_temperature;BMP_pressure;BME280_temperature;BME280_humidity;BME280_pressure;Samples;Min_cycle;Max_cycle;Signal;HPM_P1;HPM_P2
2023/01/25 00:00:38;;;;;;;16.60;11.00;;;1.60;99.90;;;;;;4318354;28;10021748;-74
2023/01/25 00:03:03;;;;;;;20.45;12.60;;;1.60;99.90;;;;;;5017001;28;20378;-75
2023/01/25 00:05:29;;;;;;;21.75;13.27;;;1.60;99.90;;;;;;5023677;28;20088;-75
2023/01/25 00:07:55;;;;;;;20.23;12.38;;;1.60;99.90;;;;;;5021673;28;20045;-74
2023/01/25 00:10:20;;;;;;;19.02;12.02;;;1.60;99.90;;;;;;5017680;28;20509;-74
2023/01/25 00:12:46;;;;;;;20.75;11.93;;;1.60;99.90;;;;;;5017907;28;20250;-75
2023/01/25 00:15:12;;;;;;;19.50;12.45;;;1.70;99.90;;;;;;5026742;28;20083;-74
2023/01/25 00:17:37;;;;;;;20.35;12.73;;;1.70;99.90;;;;;;5027448;28;20022;-75
2023/01/25 00:20:03;;;;;;;17.25;11.30;;;1.80;99.90;;;;;;5024619;28;20487;-75
2023/01/25 00:22:29;;;;;;;17.02;10.75;;;1.90;99.90;;;;;;5017574;28;20095;-75
2023/01/25 00:24:54;;;;;;;18.35;11.35;;;1.90;99.90;;;;;;5025820;28;20033;-75
2023/01/25 00:27:20;;;;;;;16.83;10.95;;;1.90;99.90;;;;;;5023098;28;20022;-75
2023/01/25 00:29:47;;;;;;;17.80;10.88;;;1.90;99.90;;;;;;5027161;28;20037;-75
2023/01/25 00:32:12;;;;;;;18.27;11.43;;;1.80;99.90;;;;;;5023789;28;20025;-74
2023/01/25 00:34:45;;;;;;;16.83;10.60;;;1.70;99.90;;;;;;5012239;28;20109;-75
2023/01/25 00:37:17;;;;;;;19.38;11.40;;;1.60;99.90;;;;;;5021135;28;20018;-75
2023/01/25 00:39:43;;;;;;;19.73;11.90;;;1.60;99.90;;;;;;5028454;28;20037;-74
2023/01/25 00:42:14;;;;;;;20.70;12.00;;;1.60;99.90;;;;;;5014772;28;20439;-75
2023/01/25 00:44:41;;;;;;;21.48;13.57;;;1.60;99.90;;;;;;5020054;28;20029;-74
2023/01/25 00:47:06;;;;;;;21.20;12.73;;;1.50;99.90;;;;;;5024673;28;20112;-74
2023/01/25 00:49:32;;;;;;;19.30;11.65;;;1.50;99.90;;;;;;5021675;28;20578;-74
2023/01/25 00:51:59;;;;;;;18.90;12.38;;;1.60;99.90;;;;;;5015197;28;20481;-74
2023/01/25 00:54:25;;;;;;;20.10;12.45;;;1.50;99.90;;;;;;5019644;28;20078;-74
2023/01/25 00:56:52;;;;;;;22.45;13.45;;;1.50;99.90;;;;;;5018423;28;20022;-74
2023/01/25 00:59:18;;;;;;;19.77;13.00;;;1.50;99.90;;;;;;5029259;28;20044;-75
2023/01/25 01:01:44;;;;;;;20.48;12.15;;;1.50;99.90;;;;;;5016922;28;20113;-74
2023/01/25 01:04:10;;;;;;;19.60;12.02;;;1.40;99.90;;;;;;5018002;28;20120;-74
2023/01/25 01:06:37;;;;;;;22.67;13.52;;;1.40;99.90;;;;;;5022223;28;20604;-74
2023/01/25 01:09:04;;;;;;;22.33;13.77;;;1.50;99.90;;;;;;5021146;28;20029;-74
2023/01/25 01:11:30;;;;;;;20.65;13.07;;;1.50;99.90;;;;;;5008744;28;20038;-75
2023/01/25 01:13:56;;;;;;;21.33;13.30;;;1.50;99.90;;;;;;5010870;28;20060;-75
2023/01/25 01:16:22;;;;;;;22.67;13.07;;;1.50;99.90;;;;;;5019923;28;20051;-75
2023/01/25 01:18:48;;;;;;;20.42;12.75;;;1.60;99.90;;;;;;5023509;28;20034;-74
2023/01/25 01:21:13;;;;;;;21.15;12.75;;;1.70;99.90;;;;;;5016068;28;20025;-74
2023/01/25 01:23:39;;;;;;;19.73;12.15;;;1.70;99.90;;;;;;5016485;28;20037;-74
2023/01/25 01:26:09;;;;;;;21.48;12.80;;;1.90;99.90;;;;;;5017589;28;20499;-75
2023/01/25 01:28:38;;;;;;;20.25;11.88;;;1.90;99.90;;;;;;5016766;28;20188;-74
2023/01/25 01:31:13;;;;;;;21.25;11.85;;;2.00;99.90;;;;;;5013816;28;20030;-75
2023/01/25 01:33:39;;;;;;;21.92;12.63;;;2.00;99.90;;;;;;5021493;28;20033;-74
2023/01/25 01:36:14;;;;;;;19.40;12.48;;;2.00;99.90;;;;;;5010440;28;20076;-74
2023/01/25 01:38:40;;;;;;;20.35;12.48;;;2.10;99.90;;;;;;5017614;28;20029;-74
2023/01/25 01:41:06;;;;;;;20.33;13.13;;;2.00;99.90;;;;;;5012613;28;20124;-74
2023/01/25 01:43:32;;;;;;;22.95;13.43;;;2.10;99.90;;;;;;5019088;28;20025;-75
2023/01/25 01:46:00;;;;;;;22.70;13.88;;;2.10;99.90;;;;;;5015311;28;20033;-74
2023/01/25 01:48:46;;;;;;;22.73;13.07;;;2.00;99.90;;;;;;5015659;28;20124;-75
2023/01/25 01:51:27;;;;;;;21.73;12.63;;;2.00;99.90;;;;;;5015166;28;20498;-74
2023/01/25 01:54:25;;;;;;;22.33;13.15;;;1.90;99.90;;;;;;5020548;28;20036;-75
2023/01/25 01:57:04;;;;;;;21.70;12.93;;;1.80;99.90;;;;;;5017393;28;20731;-74
2023/01/25 01:59:36;;;;;;;18.55;11.75;;;1.70;99.90;;;;;;5016059;28;20029;-74
2023/01/25 02:02:02;;;;;;;21.52;12.95;;;1.70;99.90;;;;;;5010915;28;20108;-74
2023/01/25 02:04:28;;;;;;;24.52;13.55;;;1.70;99.90;;;;;;5016111;28;20034;-74
2023/01/25 02:07:10;;;;;;;22.95;13.25;;;1.70;99.90;;;;;;5026433;28;20084;-74
2023/01/25 02:09:36;;;;;;;21.30;13.27;;;1.80;99.90;;;;;;5009385;28;20026;-74
2023/01/25 02:12:03;;;;;;;20.55;12.40;;;1.80;99.90;;;;;;5018918;28;20039;-74
2023/01/25 02:14:29;;;;;;;22.63;13.45;;;1.90;99.90;;;;;;5016813;28;20413;-74
2023/01/25 02:16:55;;;;;;;24.77;14.88;;;1.80;99.90;;;;;;5025343;28;20018;-74
2023/01/25 02:19:42;;;;;;;24.08;14.45;;;1.70;99.90;;;;;;5019628;28;20034;-74
2023/01/25 02:22:15;;;;;;;22.30;13.27;;;1.70;99.90;;;;;;5013798;28;20033;-74
2023/01/25 02:24:46;;;;;;;23.02;13.38;;;1.60;99.90;;;;;;5026652;28;20017;-74
2023/01/25 02:27:11;;;;;;;23.27;13.32;;;1.60;99.90;;;;;;5019087;28;20038;-74
2023/01/25 02:29:38;;;;;;;20.55;12.65;;;1.50;99.90;;;;;;5015590;28;20040;-75
2023/01/25 02:32:05;;;;;;;23.33;13.07;;;1.50;99.90;;;;;;5016367;28;20440;-75
2023/01/25 02:34:31;;;;;;;24.48;14.10;;;1.40;99.90;;;;;;5024822;28;20029;-74
2023/01/25 02:36:56;;;;;;;24.45;13.50;;;1.30;99.90;;;;;;5019190;28;20028;-74
2023/01/25 02:39:25;;;;;;;24.25;13.77;;;1.20;99.90;;;;;;5027662;28;20124;-75
2023/01/25 02:41:51;;;;;;;26.77;15.20;;;1.20;99.90;;;;;;5026028;28;20225;-74
2023/01/25 02:44:20;;;;;;;22.27;13.40;;;1.20;99.90;;;;;;5026413;28;20441;-75
2023/01/25 02:46:46;;;;;;;24.65;13.77;;;1.20;99.90;;;;;;5016646;28;20383;-75
2023/01/25 02:49:12;;;;;;;24.20;13.63;;;1.10;99.90;;;;;;5026414;28;20092;-75
2023/01/25 02:51:41;;;;;;;24.88;13.88;;;1.20;99.90;;;;;;5021387;28;20091;-75
2023/01/25 02:54:10;;;;;;;26.73;15.50;;;1.40;99.90;;;;;;5016594;28;20095;-75
2023/01/25 02:56:36;;;;;;;24.17;13.85;;;1.50;99.90;;;;;;5021173;28;20037;-75
2023/01/25 02:59:05;;;;;;;21.42;12.32;;;1.60;99.90;;;;;;5019812;28;20463;-73
2023/01/25 03:01:37;;;;;;;23.13;13.15;;;1.70;99.90;;;;;;5017535;28;20029;-75
2023/01/25 03:04:04;;;;;;;27.05;14.48;;;1.60;99.90;;;;;;5016394;28;20042;-75
2023/01/25 03:06:30;;;;;;;28.58;15.20;;;1.60;99.90;;;;;;5022124;28;20033;-75
2023/01/25 03:08:55;;;;;;;27.88;14.70;;;1.50;99.90;;;;;;5023592;28;20492;-75
2023/01/25 03:11:21;;;;;;;27.65;14.65;;;1.40;99.90;;;;;;5014112;28;20026;-74
2023/01/25 03:13:47;;;;;;;26.67;14.45;;;1.30;99.90;;;;;;5018086;28;20767;-74
2023/01/25 03:16:12;;;;;;;25.02;13.77;;;1.20;99.90;;;;;;5019924;28;20017;-74
2023/01/25 03:18:39;;;;;;;26.15;13.63;;;1.10;99.90;;;;;;5010709;28;20426;-74
2023/01/25 03:21:07;;;;;;;27.73;14.73;;;1.10;99.90;;;;;;5009854;28;20029;-74
2023/01/25 03:23:33;;;;;;;25.90;14.07;;;1.10;99.90;;;;;;5014661;28;20029;-74
2023/01/25 03:26:10;;;;;;;26.13;14.27;;;1.00;99.90;;;;;;5022754;28;20033;-74
2023/01/25 03:28:37;;;;;;;28.50;15.10;;;1.10;99.90;;;;;;5021058;28;20573;-74
2023/01/25 03:31:04;;;;;;;24.38;13.70;;;1.30;99.90;;;;;;5026430;28;20124;-74
2023/01/25 03:33:30;;;;;;;25.77;14.40;;;1.30;99.90;;;;;;5019151;28;20026;-74
2023/01/25 03:35:56;;;;;;;29.80;15.65;;;1.40;99.90;;;;;;5026756;28;20080;-75
2023/01/25 03:38:23;;;;;;;29.33;15.70;;;1.40;99.90;;;;;;5024283;28;21302;-75
2023/01/25 03:40:49;;;;;;;29.65;15.00;;;1.30;99.90;;;;;;5019231;28;20481;-74
2023/01/25 03:43:15;;;;;;;23.38;13.57;;;1.20;99.90;;;;;;5010095;28;20059;-74
2023/01/25 03:45:40;;;;;;;24.38;13.90;;;1.20;99.90;;;;;;5020023;28;20083;-75
2023/01/25 03:48:06;;;;;;;27.77;15.57;;;1.30;99.90;;;;;;5020255;28;20609;-75
2023/01/25 03:50:32;;;;;;;27.52;15.60;;;1.30;99.90;;;;;;5024335;28;20040;-75
2023/01/25 03:53:04;;;;;;;29.13;15.18;;;1.30;99.90;;;;;;5020936;28;20039;-75
2023/01/25 03:55:30;;;;;;;28.90;15.32;;;1.20;99.90;;;;;;5014707;28;20030;-75
2023/01/25 03:57:56;;;;;;;26.52;14.73;;;1.20;99.90;;;;;;5022386;28;20013;-75
2023/01/25 04:00:22;;;;;;;26.65;13.77;;;1.30;99.90;;;;;;5023061;28;20029;-75
2023/01/25 04:02:47;;;;;;;24.90;14.40;;;1.40;99.90;;;;;;5013817;28;20049;-75
2023/01/25 04:05:13;;;;;;;24.35;13.43;;;1.40;99.90;;;;;;5019306;28;20037;-75
2023/01/25 04:07:39;;;;;;;27.48;15.15;;;1.40;99.90;;;;;;5014917;28;20026;-74
2023/01/25 04:10:05;;;;;;;27.17;14.70;;;1.40;99.90;;;;;;5016176;28;20499;-75
2023/01/25 04:12:31;;;;;;;26.38;14.75;;;1.30;99.90;;;;;;5011973;28;20025;-74
2023/01/25 04:14:57;;;;;;;27.15;14.95;;;1.20;99.90;;;;;;5012983;28;20026;-75
2023/01/25 04:17:23;;;;;;;25.25;13.65;;;1.20;99.90;;;;;;5022442;28;20389;-74
2023/01/25 04:19:48;;;;;;;23.52;12.98;;;1.20;99.90;;;;;;5027514;28;20088;-74
2023/01/25 04:22:15;;;;;;;29.77;15.07;;;1.10;99.90;;;;;;5026819;28;20056;-75
2023/01/25 04:24:41;;;;;;;28.42;14.90;;;1.10;99.90;;;;;;5021428;28;20026;-75
2023/01/25 04:27:07;;;;;;;28.48;14.55;;;1.10;99.90;;;;;;5026792;28;20072;-75
2023/01/25 04:29:33;;;;;;;30.45;15.65;;;1.00;99.90;;;;;;5023635;28;20037;-73
2023/01/25 04:31:59;;;;;;;30.73;15.63;;;1.00;99.90;;;;;;5021190;28;20108;-74
2023/01/25 04:34:24;;;;;;;29.50;15.35;;;1.00;99.90;;;;;;5024083;28;20021;-74
2023/01/25 04:36:50;;;;;;;27.17;15.02;;;1.00;99.90;;;;;;5020388;28;20025;-74
2023/01/25 04:39:16;;;;;;;31.50;16.17;;;1.00;99.90;;;;;;5023015;28;20470;-74
2023/01/25 04:41:41;;;;;;;27.23;15.20;;;0.90;99.90;;;;;;5014421;28;20557;-74
2023/01/25 04:44:07;;;;;;;29.38;15.20;;;0.90;99.90;;;;;;5017981;28;20410;-74
2023/01/25 04:46:32;;;;;;;26.90;13.65;;;0.90;99.90;;;;;;5015301;28;20060;-74
2023/01/25 04:48:58;;;;;;;29.05;14.90;;;0.90;99.90;;;;;;5020473;28;20176;-74
2023/01/25 04:51:23;;;;;;;26.80;13.60;;;0.90;99.90;;;;;;5010441;28;20029;-74
2023/01/25 04:53:49;;;;;;;28.50;14.45;;;0.90;99.90;;;;;;5015223;28;20033;-74
2023/01/25 04:56:14;;;;;;;27.88;14.60;;;0.90;99.90;;;;;;5021187;28;20041;-74
2023/01/25 04:58:40;;;;;;;27.45;13.98;;;0.90;99.90;;;;;;5017448;28;20484;-74
2023/01/25 05:01:06;;;;;;;25.40;13.48;;;0.80;99.90;;;;;;5014198;28;20041;-74
2023/01/25 05:03:31;;;;;;;29.55;15.50;;;0.80;99.90;;;;;;5015149;28;20040;-75
2023/01/25 05:05:57;;;;;;;30.45;14.63;;;0.80;99.90;;;;;;5017451;28;20030;-74
2023/01/25 05:08:22;;;;;;;25.95;14.13;;;0.80;99.90;;;;;;5017444;28;20029;-74
2023/01/25 05:10:48;;;;;;;26.15;13.55;;;0.80;99.90;;;;;;5012786;28;20086;-74
2023/01/25 05:13:14;;;;;;;28.30;14.48;;;0.80;99.90;;;;;;5009767;28;20599;-74
2023/01/25 05:15:40;;;;;;;31.05;15.13;;;0.80;99.90;;;;;;5018050;28;20029;-74
2023/01/25 05:18:05;;;;;;;28.75;15.18;;;0.80;99.90;;;;;;5021569;28;20025;-75
2023/01/25 05:20:31;;;;;;;28.95;14.90;;;0.90;99.90;;;;;;5018564;28;20461;-74
2023/01/25 05:22:56;;;;;;;27.45;14.02;;;0.80;99.90;;;;;;5016371;28;20029;-74
2023/01/25 05:28:06;;;;;;;29.80;15.63;;;0.90;99.90;;;;;;5020013;28;20048;-75
2023/01/25 05:30:32;;;;;;;28.95;14.75;;;1.00;99.90;;;;;;5015431;28;20033;-75
2023/01/25 05:32:58;;;;;;;28.25;14.93;;;1.00;99.90;;;;;;5025803;28;20037;-74
2023/01/25 05:35:24;;;;;;;26.52;14.25;;;0.90;99.90;;;;;;5009184;28;20488;-74
2023/01/25 05:37:50;;;;;;;27.42;14.15;;;1.00;99.90;;;;;;5018099;28;20022;-75
2023/01/25 05:40:15;;;;;;;23.90;13.65;;;1.00;99.90;;;;;;5011047;28;20432;-75
2023/01/25 05:42:41;;;;;;;24.83;13.27;;;1.00;99.90;;;;;;5014550;28;20029;-74
2023/01/25 05:45:08;;;;;;;24.65;13.60;;;1.10;99.90;;;;;;5011393;28;20129;-74
2023/01/25 05:47:33;;;;;;;27.00;13.82;;;1.10;99.90;;;;;;5020130;28;20026;-74
2023/01/25 05:49:59;;;;;;;25.38;13.73;;;1.20;99.90;;;;;;5021833;28;20054;-74
2023/01/25 05:52:24;;;;;;;23.45;12.80;;;1.30;99.90;;;;;;5016939;28;20033;-74
2023/01/25 05:54:50;;;;;;;21.90;12.48;;;1.30;99.90;;;;;;5006404;28;20052;-74
2023/01/25 05:57:16;;;;;;;24.75;13.18;;;1.30;99.90;;;;;;5007024;28;20426;-74
2023/01/25 05:59:41;;;;;;;22.20;12.75;;;1.20;99.90;;;;;;5007300;28;20041;-74
2023/01/25 06:02:07;;;;;;;25.05;13.18;;;1.20;99.90;;;;;;5011323;28;20061;-74
2023/01/25 06:04:33;;;;;;;27.20;14.60;;;1.10;99.90;;;;;;5015423;28;20371;-74
2023/01/25 06:06:58;;;;;;;25.33;13.25;;;1.00;99.90;;;;;;5017360;28;20041;-74
2023/01/25 06:09:25;;;;;;;26.98;12.95;;;0.90;99.90;;;;;;5019575;28;20281;-74
2023/01/25 06:11:50;;;;;;;24.67;13.35;;;0.90;99.90;;;;;;5005271;28;20478;-74
2023/01/25 06:14:16;;;;;;;24.95;13.48;;;0.90;99.90;;;;;;5018194;28;20088;-74
2023/01/25 06:16:42;;;;;;;28.13;13.80;;;0.90;99.90;;;;;;5019660;28;20026;-74
2023/01/25 06:19:08;;;;;;;24.45;12.77;;;0.90;99.90;;;;;;5029882;28;20029;-74
2023/01/25 06:21:35;;;;;;;24.33;11.90;;;0.80;99.90;;;;;;5023161;28;20032;-74
2023/01/25 06:24:02;;;;;;;21.58;11.90;;;0.80;99.90;;;;;;5019022;28;20037;-75
2023/01/25 06:26:28;;;;;;;22.20;12.07;;;0.70;99.90;;;;;;5024503;28;20104;-75
2023/01/25 06:28:53;;;;;;;21.70;11.90;;;0.70;99.90;;;;;;5025422;28;20438;-75
2023/01/25 06:31:19;;;;;;;24.45;12.43;;;0.60;99.90;;;;;;5025575;28;20390;-75
2023/01/25 06:33:49;;;;;;;27.27;13.60;;;0.70;99.90;;;;;;5019731;28;20033;-74
2023/01/25 06:36:17;;;;;;;26.30;12.55;;;0.70;99.90;;;;;;5020089;28;20560;-75
2023/01/25 06:38:48;;;;;;;27.13;13.07;;;0.70;99.90;;;;;;5008190;28;20091;-75
2023/01/25 06:41:14;;;;;;;26.55;13.93;;;0.60;99.90;;;;;;5006368;28;20030;-74
2023/01/25 06:43:39;;;;;;;26.65;13.50;;;0.60;99.90;;;;;;5014050;28;20386;-74
2023/01/25 06:46:08;;;;;;;27.92;13.30;;;0.60;99.90;;;;;;5007747;28;20030;-74
2023/01/25 06:48:34;;;;;;;24.63;12.15;;;0.60;99.90;;;;;;5006598;28;20054;-74
2023/01/25 06:51:03;;;;;;;28.52;14.45;;;0.60;99.90;;;;;;5004974;28;20033;-74
2023/01/25 06:53:30;;;;;;;28.05;14.00;;;0.60;99.90;;;;;;5011162;28;20033;-75
2023/01/25 06:56:07;;;;;;;27.17;13.50;;;0.60;99.90;;;;;;5006738;28;20029;-74
2023/01/25 06:58:33;;;;;;;27.27;13.90;;;0.60;99.90;;;;;;5008078;28;20040;-74
2023/01/25 07:01:11;;;;;;;26.17;13.95;;;0.70;99.90;;;;;;5007246;28;20048;-73
2023/01/25 07:03:37;;;;;;;26.83;13.73;;;0.80;99.90;;;;;;5013644;28;20551;-74
2023/01/25 07:06:05;;;;;;;27.25;14.75;;;0.80;99.90;;;;;;5007692;28;20032;-73
2023/01/25 07:08:32;;;;;;;27.90;14.57;;;0.90;99.90;;;;;;5005929;28;20033;-74
2023/01/25 07:11:00;;;;;;;30.70;15.20;;;0.90;99.90;;;;;;5004609;28;20037;-74
2023/01/25 07:13:27;;;;;;;31.33;15.60;;;0.90;99.90;;;;;;5007753;28;20406;-74
2023/01/25 07:16:13;;;;;;;27.45;14.00;;;0.90;99.90;;;;;;5009268;28;20062;-74
2023/01/25 07:18:39;;;;;;;24.67;13.15;;;0.90;99.90;;;;;;5008346;28;20026;-74
2023/01/25 07:21:06;;;;;;;24.35;13.38;;;0.90;99.90;;;;;;5009511;28;20026;-74
2023/01/25 07:23:33;;;;;;;25.15;13.45;;;0.90;99.90;;;;;;5006989;28;20366;-74
2023/01/25 07:25:59;;;;;;;26.48;13.25;;;0.90;99.90;;;;;;5009854;28;20037;-74
2023/01/25 07:28:25;;;;;;;27.30;14.10;;;0.90;99.90;;;;;;5005922;28;20033;-74
2023/01/25 07:30:51;;;;;;;25.73;13.30;;;0.80;99.90;;;;;;5010080;28;20120;-74
2023/01/25 07:33:17;;;;;;;29.83;14.18;;;0.80;99.90;;;;;;5007906;28;20029;-74
2023/01/25 07:35:42;;;;;;;31.20;13.55;;;0.70;99.90;;;;;;5006432;28;20120;-74
2023/01/25 07:38:08;;;;;;;29.45;14.27;;;0.80;99.90;;;;;;5000357;28;20116;-74
2023/01/25 07:40:34;;;;;;;29.25;14.23;;;0.80;99.90;;;;;;5002962;28;20437;-74
2023/01/25 07:43:00;;;;;;;29.52;14.45;;;0.70;99.90;;;;;;5005877;28;20037;-74
2023/01/25 07:45:29;;;;;;;27.25;14.07;;;0.70;99.90;;;;;;5011751;28;20041;-74
2023/01/25 07:47:56;;;;;;;26.23;13.27;;;0.70;99.90;;;;;;5006159;28;20498;-74
2023/01/25 07:50:22;;;;;;;24.85;12.90;;;0.70;99.90;;;;;;5007868;28;20520;-74
2023/01/25 07:52:47;;;;;;;24.35;12.77;;;0.70;99.90;;;;;;5013108;28;20030;-74
2023/01/25 07:55:14;;;;;;;25.10;13.27;;;0.60;99.90;;;;;;5012821;28;20474;-74
2023/01/25 07:57:39;;;;;;;27.55;14.45;;;0.70;99.90;;;;;;5011281;28;20037;-74
2023/01/25 08:00:06;;;;;;;25.20;13.73;;;0.70;99.90;;;;;;5010957;28;20717;-74
2023/01/25 08:02:32;;;;;;;22.33;12.25;;;0.70;99.90;;;;;;5020854;28;20052;-73
2023/01/25 08:04:57;;;;;;;22.50;11.70;;;0.60;99.90;;;;;;5017041;28;20112;-74
2023/01/25 08:07:23;;;;;;;20.70;10.70;;;0.70;99.90;;;;;;5020706;28;20029;-74
2023/01/25 08:09:49;;;;;;;22.58;11.98;;;0.60;99.90;;;;;;5013513;28;20517;-74
2023/01/25 08:12:16;;;;;;;22.27;11.57;;;0.60;99.90;;;;;;5005588;28;20136;-73
2023/01/25 08:14:42;;;;;;;26.33;12.60;;;0.60;99.90;;;;;;5009485;28;20085;-73
2023/01/25 08:17:07;;;;;;;22.20;11.73;;;0.60;99.90;;;;;;5010353;28;20068;-73
2023/01/25 08:19:33;;;;;;;23.83;12.15;;;0.60;99.90;;;;;;5010922;28;20037;-73
2023/01/25 08:21:58;;;;;;;22.83;11.60;;;0.60;99.90;;;;;;5008858;28;20042;-73
2023/01/25 08:24:24;;;;;;;22.02;11.32;;;0.60;99.90;;;;;;5010286;28;21553;-74
2023/01/25 08:26:49;;;;;;;24.92;12.38;;;0.60;99.90;;;;;;5007129;28;20034;-73
2023/01/25 08:29:15;;;;;;;24.33;13.38;;;0.60;99.90;;;;;;5008107;28;20030;-73
2023/01/25 08:31:44;;;;;;;27.30;13.75;;;0.60;99.90;;;;;;5009042;28;20049;-74
2023/01/25 08:34:10;;;;;;;27.67;13.15;;;0.60;99.90;;;;;;5008954;28;20121;-74
2023/01/25 08:36:36;;;;;;;25.95;13.52;;;0.70;99.90;;;;;;5013321;28;20021;-74
2023/01/25 08:39:05;;;;;;;27.25;13.63;;;0.70;99.90;;;;;;5014889;28;20051;-74
2023/01/25 08:41:32;;;;;;;33.40;15.52;;;0.70;99.90;;;;;;5008206;28;20037;-74
2023/01/25 08:43:57;;;;;;;30.35;15.18;;;0.70;99.90;;;;;;5011444;28;20034;-74
2023/01/25 08:46:26;;;;;;;29.90;14.73;;;0.70;99.90;;;;;;5004254;28;20116;-73
2023/01/25 08:48:56;;;;;;;30.10;14.05;;;0.70;99.90;;;;;;5005275;28;20418;-74
2023/01/25 08:51:23;;;;;;;29.60;13.40;;;0.60;99.90;;;;;;5008556;28;20033;-74
2023/01/25 08:53:48;;;;;;;28.75;13.90;;;0.60;99.90;;;;;;5010633;28;20034;-74
2023/01/25 08:56:16;;;;;;;30.45;14.07;;;0.60;99.90;;;;;;5010046;28;20021;-74
2023/01/25 08:58:45;;;;;;;28.70;14.60;;;0.60;99.90;;;;;;5007811;28;20057;-74
2023/01/25 09:01:12;;;;;;;33.78;15.73;;;0.60;99.90;;;;;;5008399;28;20068;-73
2023/01/25 09:03:41;;;;;;;29.45;14.88;;;0.60;99.90;;;;;;5006013;28;20042;-74
2023/01/25 09:06:08;;;;;;;32.05;14.38;;;0.60;99.90;;;;;;5008165;28;20483;-73
2023/01/25 09:08:33;;;;;;;29.73;14.50;;;0.60;99.90;;;;;;5008463;28;20026;-75
2023/01/25 09:11:04;;;;;;;26.35;13.63;;;0.60;99.90;;;;;;5016770;28;20091;-74
2023/01/25 09:13:30;;;;;;;34.83;13.27;;;0.60;99.90;;;;;;5026809;28;20041;-74
2023/01/25 09:16:05;;;;;;;29.02;14.10;;;0.60;99.90;;;;;;5023667;28;20060;-74
2023/01/25 09:18:32;;;;;;;28.13;13.38;;;0.60;99.90;;;;;;5005927;28;20140;-73
2023/01/25 09:21:03;;;;;;;26.38;12.52;;;0.60;99.90;;;;;;5003966;28;20045;-74
2023/01/25 09:23:29;;;;;;;25.30;12.15;;;0.70;99.90;;;;;;5003479;28;20103;-74
2023/01/25 09:25:59;;;;;;;23.75;12.52;;;0.70;99.90;;;;;;5006381;28;20052;-75
2023/01/25 09:28:29;;;;;;;24.88;11.40;;;0.70;99.90;;;;;;5006501;28;20084;-73
2023/01/25 09:31:00;;;;;;;24.58;12.15;;;0.60;99.90;;;;;;4999065;28;20441;-73
2023/01/25 09:33:32;;;;;;;27.35;12.80;;;0.70;99.90;;;;;;4999847;28;20029;-73
2023/01/25 09:35:58;;;;;;;23.67;11.55;;;0.50;99.90;;;;;;5003581;28;20057;-73
2023/01/25 09:38:24;;;;;;;23.75;11.88;;;0.50;99.90;;;;;;5006926;28;20478;-73
2023/01/25 09:41:28;;;;;;;29.67;12.50;;;0.60;99.90;;;;;;5005179;28;20049;-73
2023/01/25 09:44:02;;;;;;;26.95;11.52;;;0.50;99.90;;;;;;4995598;28;20041;-73
2023/01/25 09:46:39;;;;;;;22.27;11.07;;;0.60;99.90;;;;;;5012687;28;20060;-73
2023/01/25 09:49:38;;;;;;;23.77;10.70;;;0.60;99.90;;;;;;5006610;28;20049;-73
2023/01/25 09:52:53;;;;;;;22.52;10.77;;;0.60;99.90;;;;;;5002010;28;20132;-74
2023/01/25 09:55:21;;;;;;;;;;;0.60;99.90;;;;;;5001095;28;20060;-73
2023/01/25 09:57:52;;;;;;;22.92;10.05;;;0.60;99.90;;;;;;5012794;28;19960;-74
2023/01/25 10:00:27;;;;;;;22.92;10.75;;;0.60;99.90;;;;;;5005617;28;20025;-73
2023/01/25 10:03:10;;;;;;;20.80;11.15;;;0.60;99.90;;;;;;5009201;28;20062;-74
2023/01/25 10:05:44;;;;;;;23.77;11.43;;;0.70;99.90;;;;;;5006382;28;20037;-74
2023/01/25 10:08:24;;;;;;;25.95;12.30;;;0.80;99.90;;;;;;5009509;28;20036;-74
2023/01/25 10:11:13;;;;;;;23.35;11.68;;;0.90;99.90;;;;;;5005255;28;20045;-74
2023/01/25 10:13:38;;;;;;;21.73;10.93;;;1.00;99.90;;;;;;5001044;28;20049;-74
2023/01/25 10:16:05;;;;;;;24.65;11.57;;;1.00;99.90;;;;;;5006339;28;20037;-74
2023/01/25 10:18:38;;;;;;;21.50;10.63;;;1.00;99.90;;;;;;5007496;28;20505;-74
2023/01/25 10:21:11;;;;;;;24.75;11.77;;;1.00;99.90;;;;;;5007586;28;20029;-73
2023/01/25 10:23:52;;;;;;;23.35;11.73;;;0.90;99.90;;;;;;5007160;28;20117;-74
2023/01/25 10:26:20;;;;;;;25.80;11.82;;;0.90;99.90;;;;;;5003541;28;20072;-74
2023/01/25 10:29:11;;;;;;;23.65;11.75;;;0.90;99.90;;;;;;4997696;28;20732;-73
2023/01/25 10:31:51;;;;;;;24.08;12.00;;;0.90;99.90;;;;;;4999143;28;20022;-74
2023/01/25 10:34:30;;;;;;;24.77;11.55;;;0.90;99.90;;;;;;5001114;28;20033;-74
2023/01/25 10:37:18;;;;;;;26.48;11.63;;;0.90;99.90;;;;;;4997740;28;20486;-74
2023/01/25 10:40:14;;;;;;;25.33;11.77;;;0.90;99.90;;;;;;5006892;28;20044;-74
2023/01/25 10:42:57;;;;;;;24.38;11.50;;;0.90;99.90;;;;;;5002009;28;20037;-73
2023/01/25 10:45:22;;;;;;;41.20;18.60;;;0.80;99.90;;;;;;5006801;28;20026;-74
2023/01/25 10:48:01;;;;;;;22.52;11.25;;;0.80;99.90;;;;;;5002362;28;20045;-73
2023/01/25 10:50:50;;;;;;;23.63;11.68;;;0.70;99.90;;;;;;5000798;28;20041;-73
2023/01/25 10:53:27;;;;;;;24.38;12.02;;;0.70;99.90;;;;;;5009875;28;20049;-74
2023/01/25 10:56:20;;;;;;;26.65;11.68;;;0.70;99.90;;;;;;5011572;28;20028;-73
2023/01/25 10:58:47;;;;;;;;;;;0.80;99.90;;;;;;5008608;28;20038;-73
2023/01/25 11:01:31;;;;;;;23.40;12.07;;;0.70;99.90;;;;;;5008812;28;19909;-73
2023/01/25 11:03:59;;;;;;;28.98;13.07;;;0.70;99.90;;;;;;5007366;28;20112;-73
2023/01/25 11:06:36;;;;;;;23.13;11.25;;;0.70;99.90;;;;;;5008173;28;20057;-72
2023/01/25 11:09:21;;;;;;;23.50;11.15;;;0.70;99.90;;;;;;5009684;28;20098;-72
2023/01/25 11:12:10;;;;;;;27.05;13.23;;;0.80;99.90;;;;;;5005933;28;20087;-73
2023/01/25 11:14:36;;;;;;;26.90;13.23;;;0.80;99.90;;;;;;5011414;28;20109;-73
2023/01/25 11:17:04;;;;;;;22.73;11.60;;;0.80;99.90;;;;;;5006362;28;20482;-72
2023/01/25 11:19:36;;;;;;;22.50;10.70;;;0.80;99.90;;;;;;5013354;28;20038;-72
2023/01/25 11:22:24;;;;;;;23.42;10.75;;;0.80;99.90;;;;;;5009646;28;20034;-74
2023/01/25 11:24:50;;;;;;;25.17;12.38;;;0.70;99.90;;;;;;5012816;28;20057;-74
2023/01/25 11:27:21;;;;;;;27.48;12.10;;;0.70;99.90;;;;;;5012814;28;20037;-74
2023/01/25 11:30:10;;;;;;;22.80;11.80;;;0.70;99.90;;;;;;5010733;28;20061;-74
2023/01/25 11:32:39;;;;;;;21.98;11.38;;;0.70;99.90;;;;;;5008616;28;20022;-73
2023/01/25 11:35:14;;;;;;;20.98;11.00;;;0.60;99.90;;;;;;5006943;28;20471;-74
2023/01/25 11:38:01;;;;;;;22.83;10.77;;;0.70;99.90;;;;;;5009516;28;20055;-73
2023/01/25 11:40:37;;;;;;;21.50;9.95;;;0.70;99.90;;;;;;5007668;28;20497;-74
2023/01/25 11:43:08;;;;;;;20.40;10.13;;;0.70;99.90;;;;;;4999983;28;20040;-73
2023/01/25 11:45:48;;;;;;;25.38;10.60;;;0.70;99.90;;;;;;5009935;28;20091;-73
2023/01/25 11:48:33;;;;;;;17.10;8.63;;;0.70;99.90;;;;;;5012229;28;20076;-73
2023/01/25 11:51:21;;;;;;;16.92;8.70;;;0.70;99.90;;;;;;5010584;28;20026;-72
2023/01/25 11:54:08;;;;;;;19.08;9.27;;;0.60;99.90;;;;;;5006908;28;20117;-73
2023/01/25 11:56:46;;;;;;;19.88;9.55;;;0.60;99.90;;;;;;5005888;28;20056;-73
2023/01/25 11:59:21;;;;;;;18.02;9.75;;;0.60;99.90;;;;;;5006730;28;20025;-73
2023/01/25 12:02:07;;;;;;;18.52;9.38;;;0.70;99.90;;;;;;5008996;28;20088;-73
2023/01/25 12:04:39;;;;;;;24.15;10.35;;;;;;;;;;5004699;28;20057;-73
2023/01/25 12:07:08;;;;;;;19.70;9.95;;;;;;;;;;5010613;28;20042;-73
2023/01/25 12:09:49;;;;;;;19.00;9.75;;;;;;;;;;5005147;28;20088;-72
2023/01/25 12:12:25;;;;;;;19.10;9.63;;;;;;;;;;5010333;28;20045;-73
2023/01/25 12:14:57;;;;;;;31.95;13.77;;;;;;;;;;5008454;28;20037;-73
2023/01/25 12:17:27;;;;;;;24.15;11.48;;;;;;;;;;5009110;28;20041;-72
2023/01/25 12:19:56;;;;;;;21.45;10.93;;;;;;;;;;5009950;28;20037;-73
2023/01/25 12:22:22;;;;;;;27.67;14.43;;;;;;;;;;5005032;28;20224;-73
2023/01/25 12:25:01;;;;;;;26.92;13.70;;;;;;;;;;5008965;28;20109;-73
2023/01/25 12:27:32;;;;;;;26.83;13.45;;;;;;;;;;5006442;28;20075;-73
2023/01/25 12:30:15;;;;;;;23.15;11.98;;;0.90;99.90;;;;;;5003258;28;20161;-73
2023/01/25 12:32:50;;;;;;;29.38;14.82;;;0.90;99.90;;;;;;5004824;28;20537;-73
2023/01/25 12:35:34;;;;;;;26.00;13.00;;;0.80;99.90;;;;;;5011893;28;20030;-72
2023/01/25 12:38:07;;;;;;;21.70;11.95;;;0.80;99.90;;;;;;5011652;28;20033;-73
2023/01/25 12:40:46;;;;;;;24.00;12.73;;;0.80;99.90;;;;;;5007373;28;20441;-73
2023/01/25 12:43:20;;;;;;;21.73;12.18;;;0.80;99.90;;;;;;5008521;28;20033;-73
2023/01/25 12:45:49;;;;;;;24.70;12.85;;;0.80;99.90;;;;;;5006685;28;20064;-73
2023/01/25 12:48:27;;;;;;;25.00;13.27;;;0.80;99.90;;;;;;5012312;28;20124;-73
2023/01/25 12:50:58;;;;;;;28.33;14.75;;;0.70;99.90;;;;;;5005648;28;20605;-73
2023/01/25 12:53:38;;;;;;;30.05;15.07;;;0.70;99.90;;;;;;5000214;28;20105;-74
2023/01/25 12:56:07;;;;;;;23.63;13.73;;;0.70;99.90;;;;;;5003931;28;20076;-73